Time;durP1;ratioP1;P1;durP2;ratioP2;P2;SDS_P1;SDS_P2;PMS_P1;PMS_P2;Temp;Humidity;BMP_temperature;BMP_pressure;BME280_temperature;BME280_humidity;BME280_pressure;Samples;Min_cycle;Max_cycle;Signal;HPM_P1;HPM_P2
2022/08/18 00:00:56;;;;;;;6.18;4.57;;;;;;;24.98;51.80;99365.38;4147246;28;20268;-65
2022/08/18 00:03:06;;;;;;;6.97;4.85;;;;;;;25.60;50.72;99369.19;4140522;28;20240;-65
2022/08/18 00:05:28;;;;;;;5.90;4.90;;;;;;;25.45;50.96;99374.59;4145010;28;20316;-66
2022/08/18 00:07:32;;;;;;;5.78;4.85;;;;;;;23.19;56.38;99387.03;4148418;28;20237;-65
2022/08/18 00:09:35;;;;;;;5.40;4.90;;;;;;;24.34;53.35;99385.31;4142328;28;20307;-65
2022/08/18 00:11:41;;;;;;;5.03;4.50;;;;;;;24.66;53.26;99374.41;4145587;28;20233;-65
2022/08/18 00:13:43;;;;;;;6.10;4.95;;;;;;;24.47;54.06;99385.69;4148990;28;20302;-65
2022/08/18 00:15:45;;;;;;;6.38;5.28;;;;;;;24.68;53.28;99373.06;4146109;28;20332;-65
2022/08/18 00:17:50;;;;;;;6.35;5.03;;;;;;;25.09;52.53;99382.53;4146581;28;20236;-65
2022/08/18 00:19:52;;;;;;;5.68;5.07;;;;;;;25.49;51.65;99389.28;4142444;28;20236;-65
2022/08/18 00:21:53;;;;;;;5.80;5.13;;;;;;;25.03;52.66;99393.41;4141655;28;20286;-65
2022/08/18 00:23:55;;;;;;;5.95;5.40;;;;;;;25.92;50.83;99384.50;4144556;28;20237;-65
2022/08/18 00:25:58;;;;;;;6.10;4.95;;;;;;;25.41;51.60;99407.78;4146607;28;20234;-65
2022/08/18 00:27:59;;;;;;;5.68;5.05;;;;;;;25.40;52.26;99405.31;4148525;28;20373;-65
2022/08/18 00:30:04;;;;;;;6.60;5.18;;;;;;;26.41;50.03;99392.16;4149754;28;20241;-66
2022/08/18 00:32:18;;;;;;;6.43;5.05;;;;;;;25.78;51.22;99408.72;4146812;28;20308;-65
2022/08/18 00:34:19;;;;;;;5.28;4.78;;;;;;;26.20;50.44;99402.28;4146138;28;20232;-65
2022/08/18 00:36:21;;;;;;;5.45;4.93;;;;;;;26.09;50.81;99404.16;4144822;28;20228;-66
2022/08/18 00:38:23;;;;;;;6.55;5.43;;;;;;;25.56;52.12;99409.72;4148268;28;20248;-66
2022/08/18 00:40:37;;;;;;;7.13;5.38;;;;;;;26.30;50.52;99409.59;4148149;28;20260;-66
2022/08/18 00:42:46;;;;;;;5.70;5.10;;;;;;;25.77;51.31;99405.16;4146631;28;20633;-65
2022/08/18 00:44:48;;;;;;;5.70;5.18;;;;;;;26.38;50.67;99394.63;4143054;28;20268;-65
2022/08/18 00:46:49;;;;;;;6.07;5.35;;;;;;;26.68;49.87;99399.28;4144836;28;20237;-65
2022/08/18 00:48:52;;;;;;;5.97;5.38;;;;;;;26.48;49.76;99411.78;4145324;28;20776;-66
2022/08/18 00:51:00;;;;;;;5.57;5.07;;;;;;;26.36;50.67;99403.06;4145091;28;21001;-65
2022/08/18 00:53:28;;;;;;;6.43;5.30;;;;;;;26.31;50.71;99403.88;4144514;28;20302;-66
2022/08/18 00:55:32;;;;;;;6.45;5.10;;;;;;;26.06;51.09;99391.06;4148707;28;20233;-65
2022/08/18 00:57:34;;;;;;;6.47;5.00;;;;;;;26.41;50.57;99380.47;4145874;28;20291;-66
2022/08/18 00:59:41;;;;;;;5.65;5.10;;;;;;;26.29;50.89;99387.00;4142349;28;20291;-65
2022/08/18 01:01:44;;;;;;;5.93;5.32;;;;;;;26.51;49.96;99394.91;4147068;28;20271;-66
2022/08/18 01:03:52;;;;;;;6.22;5.30;;;;;;;26.53;49.89;99392.72;4144723;28;20720;-65
2022/08/18 01:06:15;;;;;;;6.10;5.28;;;;;;;26.26;51.04;99403.88;4145525;28;20951;-66
2022/08/18 01:08:16;;;;;;;6.15;5.55;;;;;;;25.95;51.52;99403.06;4144563;28;20295;-66
2022/08/18 01:10:32;;;;;;;6.97;5.70;;;;;;;26.68;50.24;99385.63;4144420;28;20326;-66
2022/08/18 01:12:33;;;;;;;6.57;5.55;;;;;;;24.89;54.08;99386.81;4145610;28;20221;-66
2022/08/18 01:14:47;;;;;;;6.13;5.53;;;;;;;26.39;50.71;99382.66;4147081;28;20580;-66
2022/08/18 01:21:52;;;;;;;6.45;5.60;;;;;;;26.23;51.13;99392.72;4141611;28;20237;-66
2022/08/18 01:23:54;;;;;;;7.25;5.80;;;;;;;26.65;50.30;99391.63;4139925;28;20288;-66
2022/08/18 01:25:59;;;;;;;6.80;4.90;;;;;;;26.94;49.79;99404.66;4146430;28;20817;-65
2022/08/18 01:28:02;;;;;;;7.50;5.55;;;;;;;26.85;49.79;99405.22;4144750;28;20710;-66
2022/08/18 01:30:09;;;;;;;6.10;5.50;;;;;;;25.40;53.00;99400.69;4141581;28;20679;-66
2022/08/18 01:32:18;;;;;;;6.35;5.65;;;;;;;25.08;53.74;99397.25;4146757;28;20756;-65
2022/08/18 01:34:23;;;;;;;6.38;5.50;;;;;;;24.99;53.62;99397.75;4145289;28;20294;-65
2022/08/18 01:36:27;;;;;;;7.60;5.80;;;;;;;25.66;52.49;99386.34;4145015;28;20278;-66
2022/08/18 01:38:30;;;;;;;6.38;5.72;;;;;;;25.15;53.52;99392.38;4145694;28;20585;-66
2022/08/18 01:40:32;;;;;;;7.85;5.13;;;;;;;24.10;55.59;99396.47;4133144;28;20237;-64
2022/08/18 01:42:55;;;;;;;6.88;5.60;;;;;;;25.28;52.85;99385.66;4129562;28;20351;-64
2022/08/18 01:44:56;;;;;;;8.40;5.78;;;;;;;24.03;55.29;99404.03;4147609;28;20232;-65
2022/08/18 01:46:58;;;;;;;6.50;5.57;;;;;;;24.41;55.44;99372.31;4146857;28;20322;-64
2022/08/18 01:49:02;;;;;;;6.03;5.43;;;;;;;25.24;53.56;99363.59;4142867;28;20248;-64
2022/08/18 01:51:08;;;;;;;6.47;5.78;;;;;;;24.81;53.66;99392.75;4144943;28;20236;-67
2022/08/18 01:53:10;;;;;;;6.57;5.20;;;;;;;24.31;55.89;99373.88;4143525;28;20232;-65
2022/08/18 01:55:12;;;;;;;7.95;5.93;;;;;;;23.90;56.46;99388.97;4143156;28;20229;-67
2022/08/18 01:57:16;;;;;;;6.28;5.53;;;;;;;24.29;55.36;99381.47;4145276;28;20324;-66
2022/08/18 01:59:17;;;;;;;7.07;5.45;;;;;;;24.81;54.49;99366.38;4145042;28;20305;-66
2022/08/18 02:01:22;;;;;;;9.38;6.10;;;;;;;24.26;55.31;99390.16;4142527;28;20237;-66
2022/08/18 02:03:41;;;;;;;7.45;5.88;;;;;;;23.12;58.21;99379.09;4145485;28;20262;-66
2022/08/18 02:05:48;;;;;;;6.90;5.78;;;;;;;23.13;57.90;99388.88;4146990;28;20305;-66
2022/08/18 02:07:50;;;;;;;6.88;5.25;;;;;;;24.27;55.63;99371.94;4144303;28;20291;-66
2022/08/18 02:09:55;;;;;;;7.30;5.67;;;;;;;23.85;56.16;99392.44;4141535;28;20253;-66
2022/08/18 02:12:00;;;;;;;6.43;5.38;;;;;;;24.62;54.60;99379.53;4142784;28;20240;-64
2022/08/18 02:14:01;;;;;;;6.88;6.18;;;;;;;25.36;52.80;99377.00;4141735;28;20287;-64
2022/08/18 02:16:04;;;;;;;6.68;5.45;;;;;;;25.69;52.19;99370.28;4143275;28;20236;-64
2022/08/18 02:18:05;;;;;;;6.27;5.67;;;;;;;25.68;52.06;99365.94;4145548;28;20236;-64
2022/08/18 02:20:10;;;;;;;7.67;6.50;;;;;;;25.77;51.91;99377.09;4145688;28;20646;-66
2022/08/18 02:22:16;;;;;;;7.15;5.80;;;;;;;24.84;53.74;99405.81;4139527;28;20256;-64
2022/08/18 02:24:18;;;;;;;6.60;5.82;;;;;;;23.57;56.37;99410.59;4143173;28;20756;-67
2022/08/18 02:26:22;;;;;;;5.90;5.30;;;;;;;25.54;52.39;99383.84;4146720;28;20271;-64
2022/08/18 02:28:23;;;;;;;6.93;5.97;;;;;;;25.59;52.26;99402.91;4142643;28;20665;-65
2022/08/18 02:30:33;;;;;;;5.83;5.27;;;;;;;25.59;52.30;99395.59;4143060;28;20228;-66
2022/08/18 02:32:35;;;;;;;6.38;5.78;;;;;;;26.46;50.50;99394.09;4142835;28;20306;-65
2022/08/18 02:34:36;;;;;;;6.00;5.40;;;;;;;26.13;51.25;99397.09;4140542;28;20244;-65
2022/08/18 02:36:38;;;;;;;7.63;5.47;;;;;;;25.55;52.25;99391.75;4146251;28;20232;-65
2022/08/18 02:38:41;;;;;;;7.20;5.70;;;;;;;26.76;49.46;99389.69;4144438;28;20232;-65
2022/08/18 02:40:45;;;;;;;7.33;5.90;;;;;;;26.96;49.01;99386.09;4142751;28;20270;-65
2022/08/18 02:42:47;;;;;;;5.93;5.43;;;;;;;26.37;50.10;99403.88;4144057;28;20237;-65
2022/08/18 02:44:49;;;;;;;8.70;6.13;;;;;;;24.65;54.01;99408.94;4144528;28;20290;-66
2022/08/18 02:46:52;;;;;;;9.90;6.20;;;;;;;26.07;51.10;99381.81;4140787;28;20236;-65
2022/08/18 02:48:55;;;;;;;6.03;5.43;;;;;;;26.83;49.68;99382.06;4141982;28;20799;-65
2022/08/18 02:51:00;;;;;;;6.00;5.40;;;;;;;26.68;49.68;99383.72;4145326;28;20294;-65
2022/08/18 02:53:01;;;;;;;7.25;6.10;;;;;;;26.26;50.28;99392.19;4140369;28;20229;-66
2022/08/18 02:55:04;;;;;;;8.18;6.07;;;;;;;26.61;50.10;99382.38;4138496;28;20801;-65
2022/08/18 02:57:09;;;;;;;6.47;5.32;;;;;;;27.06;49.33;99375.19;4142696;28;20331;-66
2022/08/18 02:59:16;;;;;;;7.07;6.00;;;;;;;26.58;50.23;99363.84;4143003;28;20384;-65
2022/08/18 03:01:20;;;;;;;6.43;5.65;;;;;;;26.57;50.01;99373.09;4144865;28;20283;-66
2022/08/18 03:03:22;;;;;;;6.43;5.72;;;;;;;26.53;49.52;99360.00;4141292;28;20232;-66
2022/08/18 03:05:23;;;;;;;6.57;5.78;;;;;;;26.58;49.96;99359.19;4143023;28;20236;-66
2022/08/18 03:07:25;;;;;;;6.65;5.88;;;;;;;27.26;48.67;99353.28;4144604;28;21016;-66
2022/08/18 03:09:28;;;;;;;6.68;6.00;;;;;;;26.83;49.29;99361.06;4140222;28;20666;-66
2022/08/18 03:11:30;;;;;;;6.30;5.38;;;;;;;26.95;48.82;99351.75;4146915;28;20228;-65
2022/08/18 03:13:32;;;;;;;7.97;6.18;;;;;;;26.83;49.40;99360.25;4138598;28;20234;-65
2022/08/18 03:15:34;;;;;;;7.68;5.75;;;;;;;25.93;51.00;99361.59;4140218;28;20620;-65
2022/08/18 03:17:36;;;;;;;7.10;5.55;;;;;;;25.10;53.10;99338.75;4144755;28;20319;-65
2022/08/18 03:19:38;;;;;;;8.20;5.80;;;;;;;24.24;54.39;99348.00;4144604;28;20268;-65
2022/08/18 03:21:39;;;;;;;6.57;5.97;;;;;;;25.14;53.21;99325.44;4142516;28;21113;-65
2022/08/18 03:23:45;;;;;;;6.30;5.68;;;;;;;26.52;49.75;99338.47;4142175;28;20286;-65
2022/08/18 03:26:03;;;;;;;6.13;5.53;;;;;;;25.81;51.18;99355.59;4141187;28;20655;-66
2022/08/18 03:28:05;;;;;;;6.45;5.82;;;;;;;24.66;53.11;99363.53;4139455;28;20667;-66
2022/08/18 03:30:08;;;;;;;7.57;5.80;;;;;;;25.82;50.87;99344.44;4145618;28;20610;-66
2022/08/18 03:32:12;;;;;;;6.13;5.53;;;;;;;25.59;51.99;99343.03;4145297;28;20632;-66
2022/08/18 03:34:14;;;;;;;6.30;5.57;;;;;;;26.60;49.57;99342.56;4139935;28;20233;-65
2022/08/18 03:36:19;;;;;;;6.32;5.68;;;;;;;26.95;48.85;99349.84;4139264;28;20969;-65
2022/08/18 03:38:22;;;;;;;5.95;5.35;;;;;;;25.78;50.55;99360.50;4140426;28;20232;-66
2022/08/18 03:40:23;;;;;;;6.68;5.45;;;;;;;25.64;51.65;99348.50;4142578;28;20792;-65
2022/08/18 03:42:25;;;;;;;6.43;5.68;;;;;;;26.49;49.95;99358.91;4141877;28;20221;-65
2022/08/18 03:44:33;;;;;;;7.25;5.50;;;;;;;26.12;51.08;99353.75;4146038;28;20236;-66
2022/08/18 03:46:34;;;;;;;6.25;5.50;;;;;;;27.08;48.67;99346.53;4146681;28;21877;-65
2022/08/18 03:48:39;;;;;;;6.13;5.40;;;;;;;26.76;48.93;99348.78;4147095;28;20233;-65
2022/08/18 03:50:41;;;;;;;6.47;5.60;;;;;;;26.90;48.97;99347.94;4148739;28;20240;-65
2022/08/18 03:52:47;;;;;;;6.65;5.95;;;;;;;27.05;48.39;99341.59;4143962;28;20294;-65
2022/08/18 03:54:49;;;;;;;6.57;5.82;;;;;;;26.95;48.83;99336.19;4146966;28;20268;-64
2022/08/18 03:56:50;;;;;;;8.27;6.03;;;;;;;26.13;50.41;99336.31;4148068;28;20224;-65
2022/08/18 03:58:56;;;;;;;7.80;6.28;;;;;;;26.11;50.30;99335.78;4144128;28;20332;-65
2022/08/18 04:00:58;;;;;;;6.70;5.63;;;;;;;26.80;49.29;99317.97;4146289;28;20717;-66
2022/08/18 04:03:01;;;;;;;6.82;5.93;;;;;;;26.51;49.91;99329.50;4143656;28;20225;-65
2022/08/18 04:05:05;;;;;;;6.95;6.25;;;;;;;26.85;48.89;99336.22;4146531;28;21039;-65
2022/08/18 04:07:09;;;;;;;6.40;5.80;;;;;;;26.48;49.86;99337.38;4145336;28;20665;-65
2022/08/18 04:09:13;;;;;;;8.68;6.03;;;;;;;26.64;49.72;99336.28;4143830;28;20237;-63
2022/08/18 04:11:15;;;;;;;7.13;6.40;;;;;;;27.06;48.57;99342.44;4144210;28;20272;-63
2022/08/18 04:13:17;;;;;;;6.70;6.00;;;;;;;27.20;48.58;99351.69;4147641;28;21040;-63
2022/08/18 04:15:18;;;;;;;7.40;6.25;;;;;;;26.21;50.55;99351.31;4145785;28;20245;-64
2022/08/18 04:17:23;;;;;;;6.63;5.93;;;;;;;25.86;50.93;99350.16;4147377;28;20240;-63
2022/08/18 04:19:26;;;;;;;8.43;6.15;;;;;;;26.29;50.36;99353.47;4144240;28;20241;-63
2022/08/18 04:21:31;;;;;;;6.68;5.97;;;;;;;26.37;50.16;99341.19;4147493;28;20608;-64
2022/08/18 04:23:37;;;;;;;8.88;6.45;;;;;;;26.35;50.11;99355.09;4145193;28;20283;-63
2022/08/18 04:25:44;;;;;;;7.93;6.20;;;;;;;26.21;50.11;99345.84;4144452;28;20232;-62
2022/08/18 04:27:46;;;;;;;7.88;6.28;;;;;;;26.51;49.52;99342.31;4144538;28;20295;-63
2022/08/18 04:29:48;;;;;;;7.32;6.50;;;;;;;26.89;49.10;99346.31;4146256;28;20232;-63
2022/08/18 04:31:51;;;;;;;8.98;6.30;;;;;;;26.27;50.05;99361.94;4148247;28;20237;-63
2022/08/18 04:33:53;;;;;;;8.98;6.35;;;;;;;26.44;49.80;99350.75;4141674;28;20286;-63
2022/08/18 04:35:55;;;;;;;7.30;6.60;;;;;;;26.15;50.33;99355.94;4145966;28;20282;-63
2022/08/18 04:37:57;;;;;;;10.18;6.80;;;;;;;26.14;50.01;99360.56;4146802;28;20287;-62
2022/08/18 04:39:58;;;;;;;7.93;6.18;;;;;;;26.47;49.75;99355.66;4143109;28;20228;-67
2022/08/18 04:42:03;;;;;;;10.10;6.15;;;;;;;25.87;51.24;99362.69;4144935;28;20595;-67
2022/08/18 04:44:07;;;;;;;7.75;5.90;;;;;;;25.85;51.29;99364.88;4143215;28;20295;-64
2022/08/18 04:46:10;;;;;;;7.57;6.00;;;;;;;26.04;50.80;99360.56;4142504;28;20237;-63
2022/08/18 04:48:12;;;;;;;7.72;6.82;;;;;;;25.96;51.10;99374.72;4140628;28;20241;-62
2022/08/18 04:50:14;;;;;;;7.57;6.68;;;;;;;26.02;50.86;99370.09;4143697;28;20246;-63
2022/08/18 04:54:42;;;;;;;8.32;6.32;;;;;;;25.33;52.34;99375.59;4142488;28;20342;-63
2022/08/18 04:56:43;;;;;;;9.38;6.55;;;;;;;25.53;51.85;99376.78;4140496;28;20241;-63
2022/08/18 04:58:49;;;;;;;8.32;6.57;;;;;;;25.76;51.46;99373.56;4131084;28;20326;-63
2022/08/18 05:02:23;;;;;;;7.40;6.60;;;;;;;25.67;52.33;99338.97;4127215;28;20589;-63
2022/08/18 05:04:27;;;;;;;8.23;6.88;;;;;;;25.83;51.27;99364.31;4126024;28;20320;-63
2022/08/18 05:06:30;;;;;;;9.35;6.88;;;;;;;26.70;49.95;99370.63;4124208;28;20277;-64
2022/08/18 05:08:31;;;;;;;9.38;7.68;;;;;;;26.19;50.78;99399.81;4122587;28;20290;-63
2022/08/18 05:10:34;;;;;;;8.68;7.47;;;;;;;26.45;50.62;99393.25;4121680;28;20238;-63
2022/08/18 05:12:36;;;;;;;8.50;7.15;;;;;;;26.21;50.38;99408.53;4124079;28;20376;-63
2022/08/18 05:14:43;;;;;;;8.38;6.97;;;;;;;26.79;49.88;99411.81;4123978;28;20240;-63
2022/08/18 05:16:45;;;;;;;8.45;7.25;;;;;;;26.64;50.10;99403.63;4111870;28;20312;-62
2022/08/18 05:18:50;;;;;;;8.57;7.63;;;;;;;25.57;52.88;99411.34;4133469;28;20252;-63
2022/08/18 05:20:54;;;;;;;8.85;6.82;;;;;;;25.85;51.98;99405.72;4140549;28;20225;-62
2022/08/18 05:22:57;;;;;;;8.07;7.27;;;;;;;26.20;51.01;99406.88;4137777;28;20287;-63
2022/08/18 05:24:59;;;;;;;9.75;7.00;;;;;;;25.78;51.56;99408.72;4138264;28;20229;-62
2022/08/18 05:27:01;;;;;;;8.35;7.35;;;;;;;25.68;52.48;99411.38;4140086;28;22017;-62
2022/08/18 05:29:03;;;;;;;9.33;7.57;;;;;;;26.16;50.92;99406.59;4141522;28;20721;-63
2022/08/18 05:31:22;;;;;;;14.27;7.60;;;;;;;26.30;50.98;99393.25;4138728;28;20774;-62
2022/08/18 05:33:24;;;;;;;8.90;8.00;;;;;;;26.04;51.27;99397.88;4138686;28;20324;-63
2022/08/18 05:35:34;;;;;;;11.47;8.33;;;;;;;26.40;50.53;99390.53;4140749;28;20232;-63
2022/08/18 05:38:10;;;;;;;8.60;7.57;;;;;;;26.40;50.38;99395.97;4141752;28;20232;-63
2022/08/18 05:40:13;;;;;;;8.38;7.05;;;;;;;25.99;51.95;99389.72;4130538;28;20228;-63
2022/08/18 05:42:18;;;;;;;8.73;7.57;;;;;;;25.08;53.53;99383.66;4133596;28;20243;-63
2022/08/18 05:44:34;;;;;;;8.50;7.60;;;;;;;25.29;53.35;99363.63;4131841;28;20238;-63
2022/08/18 05:46:45;;;;;;;8.93;8.10;;;;;;;25.36;53.20;99363.41;4134573;28;20237;-63
2022/08/18 05:48:46;;;;;;;9.30;8.40;;;;;;;24.81;54.42;99360.13;4132333;28;20288;-62
2022/08/18 05:50:50;;;;;;;8.27;7.35;;;;;;;26.24;51.75;99337.94;4123261;28;20245;-63
2022/08/18 05:52:56;;;;;;;8.75;7.95;;;;;;;25.25;53.38;99354.34;4123768;28;20230;-62
2022/08/18 05:57:56;;;;;;;9.23;8.17;;;;;;;25.36;53.57;99357.97;4128829;28;20226;-63
2022/08/18 05:59:59;;;;;;;10.63;7.40;;;;;;;25.38;53.91;99356.59;4125745;28;20773;-62
2022/08/18 06:02:15;;;;;;;7.90;7.07;;;;;;;23.51;57.90;99367.34;4121877;28;20316;-62
2022/08/18 06:04:26;;;;;;;8.93;7.70;;;;;;;24.59;55.72;99368.38;4121972;28;20681;-62
2022/08/18 06:06:30;;;;;;;10.27;7.73;;;;;;;25.90;52.99;99356.72;4121829;28;20598;-61
2022/08/18 06:08:39;;;;;;;9.75;7.82;;;;;;;25.84;53.20;99368.69;4129425;28;20233;-62
2022/08/18 06:10:46;;;;;;;10.85;8.20;;;;;;;25.76;53.17;99378.19;4122482;28;20231;-62
2022/08/18 06:12:52;;;;;;;8.68;7.85;;;;;;;25.70;53.40;99384.72;4118099;28;20231;-62
2022/08/18 06:15:18;;;;;;;8.82;7.47;;;;;;;26.37;52.08;99373.91;4113733;28;20997;-62
2022/08/18 06:17:39;;;;;;;11.63;7.75;;;;;;;25.84;52.76;99383.09;4107390;28;20246;-62
2022/08/18 06:19:55;;;;;;;9.82;8.23;;;;;;;25.63;53.40;99382.25;4112650;28;20235;-62
2022/08/18 06:22:00;;;;;;;9.30;8.20;;;;;;;24.28;57.04;99382.56;4125350;28;20233;-63
2022/08/18 06:24:04;;;;;;;9.93;8.13;;;;;;;25.95;53.14;99375.81;4127919;28;20320;-63
2022/08/18 06:26:25;;;;;;;10.10;8.40;;;;;;;26.33;52.48;99377.16;4125358;28;20314;-62
2022/08/18 06:28:54;;;;;;;9.60;8.60;;;;;;;26.00;52.77;99374.97;4130571;28;20782;-62
2022/08/18 06:31:04;;;;;;;9.90;7.70;;;;;;;25.10;54.61;99387.72;4128741;28;20295;-62
2022/08/18 06:33:20;;;;;;;10.00;8.85;;;;;;;25.60;53.95;99374.63;4128709;28;20267;-63
2022/08/18 06:35:33;;;;;;;9.53;8.53;;;;;;;25.44;54.47;99384.63;4128700;28;20241;-62
2022/08/18 06:40:13;;;;;;;10.40;8.77;;;;;;;25.42;53.59;99398.53;4122405;28;20241;-62
2022/08/18 06:42:24;;;;;;;9.38;8.38;;;;;;;25.20;54.31;99400.56;4128960;28;20241;-62
2022/08/18 06:44:34;;;;;;;9.60;8.60;;;;;;;25.64;53.72;99388.50;4131086;28;20296;-63
2022/08/18 06:46:43;;;;;;;12.02;8.63;;;;;;;24.58;56.48;99394.75;4130948;28;20298;-62
2022/08/18 06:49:02;;;;;;;9.53;8.63;;;;;;;25.78;53.56;99384.22;4129140;28;20284;-63
2022/08/18 06:51:06;;;;;;;10.23;8.35;;;;;;;25.93;53.48;99386.94;4132175;28;20253;-63
2022/08/18 06:53:07;;;;;;;9.18;8.27;;;;;;;25.99;53.10;99395.16;4130793;28;20941;-62
2022/08/18 06:55:38;;;;;;;11.82;9.35;;;;;;;25.41;54.32;99398.78;4127370;28;20240;-62
2022/08/18 06:57:58;;;;;;;9.38;8.45;;;;;;;25.47;54.43;99399.63;4131618;28;20288;-63
2022/08/18 07:00:04;;;;;;;9.38;8.40;;;;;;;24.80;55.75;99391.94;4129533;28;20225;-62
2022/08/18 07:02:40;;;;;;;9.23;8.27;;;;;;;23.86;57.70;99417.72;4129221;28;20323;-62
2022/08/18 07:04:58;;;;;;;10.00;8.83;;;;;;;24.84;56.43;99387.59;4126525;28;20242;-62
2022/08/18 07:07:13;;;;;;;10.20;8.73;;;;;;;25.65;54.71;99392.88;4116603;28;20249;-63
2022/08/18 07:09:24;;;;;;;10.32;8.68;;;;;;;26.16;53.32;99393.78;4112308;28;20234;-63
2022/08/18 07:11:29;;;;;;;11.70;9.80;;;;;;;26.21;53.34;99417.50;4114500;28;20272;-63
2022/08/18 07:13:39;;;;;;;10.15;9.15;;;;;;;26.59;52.51;99423.56;4127099;28;20240;-62
2022/08/18 07:15:44;;;;;;;10.75;8.80;;;;;;;25.67;54.45;99439.72;4129886;28;20328;-62
2022/08/18 07:17:47;;;;;;;10.02;8.15;;;;;;;25.14;55.26;99453.31;4131100;28;20741;-62
2022/08/18 07:20:00;;;;;;;11.13;9.00;;;;;;;24.94;56.19;99452.09;4126543;28;20237;-62
2022/08/18 07:22:28;;;;;;;9.68;8.35;;;;;;;25.40;55.01;99457.81;4126243;28;20765;-62
2022/08/18 07:24:45;;;;;;;9.73;8.70;;;;;;;25.16;55.86;99459.31;4124587;28;20241;-62
2022/08/18 07:26:59;;;;;;;10.77;8.65;;;;;;;24.87;55.96;99462.41;4129571;28;20217;-62
2022/08/18 07:29:13;;;;;;;9.30;8.30;;;;;;;24.62;57.17;99452.13;4127652;28;20233;-62
2022/08/18 07:31:26;;;;;;;9.23;8.07;;;;;;;24.46;56.52;99473.75;4127142;28;20513;-62
2022/08/18 07:33:29;;;;;;;10.27;8.10;;;;;;;24.75;56.63;99459.84;4129309;28;20233;-62
2022/08/18 07:35:44;;;;;;;9.30;8.27;;;;;;;25.25;55.31;99460.44;4130364;28;20233;-62
2022/08/18 07:37:53;;;;;;;9.73;8.20;;;;;;;25.14;55.38;99470.47;4126716;28;20233;-63
2022/08/18 07:40:00;;;;;;;9.70;8.15;;;;;;;25.58;54.85;99444.84;4128439;28;20238;-63
2022/08/18 07:42:17;;;;;;;9.20;8.30;;;;;;;25.62;54.59;99445.94;4130067;28;20237;-62
2022/08/18 07:44:44;;;;;;;11.25;8.70;;;;;;;25.90;53.89;99443.88;4128574;28;20724;-62
2022/08/18 07:46:59;;;;;;;8.35;7.55;;;;;;;25.23;55.59;99452.53;4129262;28;20233;-62
2022/08/18 07:49:01;;;;;;;11.35;8.45;;;;;;;25.19;54.95;99464.25;4126443;28;20237;-63
2022/08/18 07:51:20;;;;;;;10.25;8.38;;;;;;;26.23;53.36;99450.75;4129322;28;20292;-62
2022/08/18 07:53:37;;;;;;;11.00;8.35;;;;;;;24.33;57.40;99476.03;4129845;28;20736;-62
2022/08/18 07:55:42;;;;;;;8.70;7.70;;;;;;;24.09;58.12;99481.75;4126971;28;20719;-62
2022/08/18 07:58:19;;;;;;;9.38;8.32;;;;;;;24.23;58.15;99468.63;4125982;28;20238;-62
2022/08/18 08:00:38;;;;;;;11.23;9.02;;;;;;;23.43;60.14;99477.13;4119943;28;20292;-62
2022/08/18 08:03:22;;;;;;;11.85;8.45;;;;;;;23.89;58.70;99476.91;4121668;28;20912;-62
2022/08/18 08:05:33;;;;;;;10.20;9.00;;;;;;;24.37;58.67;99458.16;4117020;28;20246;-63
2022/08/18 08:08:10;;;;;;;11.87;8.60;;;;;;;23.28;60.51;99485.06;4120953;28;20312;-63
2022/08/18 08:10:27;;;;;;;10.93;9.00;;;;;;;23.98;59.04;99469.16;4125947;28;20234;-62
2022/08/18 08:12:41;;;;;;;10.47;9.23;;;;;;;25.00;56.52;99451.06;4128574;28;20295;-63
2022/08/18 08:14:46;;;;;;;10.63;9.05;;;;;;;25.14;56.40;99445.97;4129049;28;20248;-62
2022/08/18 08:16:50;;;;;;;10.45;9.35;;;;;;;25.42;55.93;99463.00;4130016;28;20931;-62
2022/08/18 08:19:23;;;;;;;11.05;9.35;;;;;;;24.46;57.66;99473.75;4128893;28;20229;-62
2022/08/18 08:22:11;;;;;;;10.50;9.32;;;;;;;25.56;55.03;99461.47;4123064;28;21137;-63
2022/08/18 08:24:33;;;;;;;12.75;8.25;;;;;;;24.54;57.90;99486.03;4114129;28;20289;-63
2022/08/18 08:26:50;;;;;;;11.02;9.27;;;;;;;24.48;58.25;99487.03;4125148;28;20238;-63
2022/08/18 08:29:10;;;;;;;10.50;9.50;;;;;;;25.09;56.96;99494.06;4128965;28;20868;-63
2022/08/18 08:31:26;;;;;;;10.00;8.67;;;;;;;25.70;55.41;99485.47;4127244;28;20240;-63
2022/08/18 08:33:51;;;;;;;10.35;9.25;;;;;;;26.31;54.22;99488.38;4129259;28;20653;-63
2022/08/18 08:36:17;;;;;;;11.93;10.20;;;;;;;26.83;53.41;99472.88;4125638;28;20761;-63
2022/08/18 08:38:23;;;;;;;12.85;11.35;;;;;;;26.68;53.88;99490.06;4123504;28;20238;-63
2022/08/18 08:40:47;;;;;;;11.20;10.10;;;;;;;26.61;52.97;99484.06;4126065;28;20231;-62
2022/08/18 08:43:14;;;;;;;15.82;11.68;;;;;;;25.22;57.26;99494.47;4115718;28;20284;-63
2022/08/18 08:45:41;;;;;;;12.90;11.55;;;;;;;26.53;54.22;99470.97;4119350;28;20246;-63
2022/08/18 08:47:48;;;;;;;13.23;11.80;;;;;;;25.92;55.57;99488.00;4118965;28;20238;-62
2022/08/18 08:49:57;;;;;;;13.13;11.93;;;;;;;25.86;56.03;99489.06;4121212;28;20766;-62
2022/08/18 08:52:16;;;;;;;14.40;12.15;;;;;;;26.53;54.97;99471.78;4121279;28;20284;-63
2022/08/18 08:54:25;;;;;;;13.95;12.65;;;;;;;26.65;54.51;99452.44;4121273;28;20241;-64
2022/08/18 08:56:32;;;;;;;13.57;12.27;;;;;;;26.88;54.54;99453.78;4120185;28;20229;-62
2022/08/18 08:58:55;;;;;;;15.23;12.65;;;;;;;27.00;54.69;99449.94;4120144;28;20230;-63
2022/08/18 09:00:58;;;;;;;13.75;12.45;;;;;;;26.50;55.50;99475.09;4121968;28;20249;-63
2022/08/18 09:03:11;;;;;;;13.90;12.60;;;;;;;26.78;54.15;99481.06;4120280;28;20264;-63
2022/08/18 09:05:18;;;;;;;13.13;11.88;;;;;;;26.78;54.11;99478.34;4120856;28;20301;-63
2022/08/18 09:07:46;;;;;;;12.90;11.70;;;;;;;26.45;54.96;99479.66;4120860;28;20249;-63
2022/08/18 09:10:03;;;;;;;13.68;12.27;;;;;;;26.61;54.98;99462.25;4126382;28;20221;-62
2022/08/18 09:12:48;;;;;;;13.65;12.35;;;;;;;26.67;54.64;99450.28;4124025;28;20244;-63
2022/08/18 09:15:17;;;;;;;13.73;12.32;;;;;;;26.83;53.55;99445.59;4104392;28;20712;-62
2022/08/18 09:17:58;;;;;;;13.93;12.52;;;;;;;27.08;53.06;99444.78;4105454;28;20234;-63
2022/08/18 09:20:22;;;;;;;13.18;11.88;;;;;;;28.00;51.74;99418.16;4116246;28;20276;-63
2022/08/18 09:22:47;;;;;;;13.57;12.30;;;;;;;27.89;51.98;99431.09;4117760;28;20241;-63
2022/08/18 09:24:51;;;;;;;13.07;11.88;;;;;;;27.62;52.22;99432.31;4120158;28;20225;-63
2022/08/18 09:27:02;;;;;;;14.38;12.98;;;;;;;27.95;51.80;99412.72;4121215;28;20237;-63
2022/08/18 09:29:22;;;;;;;15.60;14.07;;;;;;;27.85;51.96;99416.34;4120009;28;20313;-64
2022/08/18 09:31:26;;;;;;;16.25;14.55;;;;;;;28.00;51.54;99429.09;4120198;28;20244;-64
2022/08/18 09:33:44;;;;;;;15.32;13.93;;;;;;;27.97;51.09;99432.38;4119228;28;20249;-62
2022/08/18 09:35:58;;;;;;;16.25;14.65;;;;;;;27.45;51.73;99435.38;4121478;28;20811;-64
2022/08/18 09:43:36;;;;;;;17.45;15.75;;;;;;;28.24;50.51;99433.88;4127787;28;20253;-63
2022/08/18 09:45:48;;;;;;;16.30;14.68;;;;;;;27.36;52.45;99450.69;4121756;28;20244;-63
2022/08/18 09:47:56;;;;;;;16.83;14.82;;;;;;;28.24;50.64;99431.97;4104968;28;20222;-63
2022/08/18 09:50:05;;;;;;;16.50;15.00;;;;;;;28.44;50.49;99427.44;4108160;28;20320;-63
2022/08/18 09:52:22;;;;;;;17.13;15.57;;;;;;;28.95;49.86;99434.38;4117251;28;20241;-63
2022/08/18 09:54:29;;;;;;;17.25;15.57;;;;;;;28.29;51.55;99439.31;4121500;28;20237;-62
2022/08/18 09:56:50;;;;;;;16.27;14.85;;;;;;;27.74;52.41;99444.84;4123560;28;20284;-63
2022/08/18 09:59:00;;;;;;;16.38;14.88;;;;;;;27.71;51.40;99443.47;4123790;28;20262;-63
2022/08/18 10:01:31;;;;;;;15.75;14.20;;;;;;;28.16;50.60;99438.88;4124371;28;20230;-63
2022/08/18 10:03:33;;;;;;;15.50;14.10;;;;;;;28.26;49.97;99451.66;4123808;28;20234;-63
2022/08/18 10:05:35;;;;;;;15.13;13.73;;;;;;;26.85;52.74;99457.06;4117606;28;21064;-63
2022/08/18 10:07:42;;;;;;;16.40;14.70;;;;;;;27.29;51.89;99457.53;4116251;28;20750;-62
2022/08/18 10:09:44;;;;;;;14.88;13.38;;;;;;;27.99;50.89;99452.88;4119576;28;20240;-63
2022/08/18 10:12:00;;;;;;;15.05;13.60;;;;;;;27.93;50.77;99458.66;4121332;28;20284;-63
2022/08/18 10:14:23;;;;;;;15.55;13.95;;;;;;;28.43;49.52;99462.19;4131172;28;20288;-64
2022/08/18 10:16:54;;;;;;;16.13;14.52;;;;;;;28.43;49.67;99467.66;4130553;28;20324;-63
2022/08/18 10:19:28;;;;;;;15.35;13.80;;;;;;;25.45;54.95;99465.22;4129694;28;20754;-63
2022/08/18 10:21:57;;;;;;;14.90;13.50;;;;;;;26.97;53.05;99431.41;4133159;28;20234;-64
2022/08/18 10:24:16;;;;;;;14.90;13.40;;;;;;;27.97;51.06;99429.66;4106264;28;20695;-63